Time;durP1;ratioP1;P1;durP2;ratioP2;P2;SDS_P1;SDS_P2;PMS_P1;PMS_P2;Temp;Humidity;BMP_temperature;BMP_pressure;BME280_temperature;BME280_humidity;BME280_pressure;Samples;Min_cycle;Max_cycle;Signal;HPM_P1;HPM_P2
2023/12/29 00:02:26;;;;;;;9.10;8.20;;;24.00;69.50;;;;;;6233226;28;84991;-65
2023/12/29 00:05:28;;;;;;;8.77;7.80;;;24.00;69.40;;;;;;6232837;28;83997;-65
2023/12/29 00:08:30;;;;;;;9.23;8.32;;;24.00;69.50;;;;;;6230109;28;84038;-64
2023/12/29 00:11:32;;;;;;;9.57;8.68;;;23.90;69.50;;;;;;6232419;28;84004;-65
2023/12/29 00:14:37;;;;;;;9.57;8.60;;;23.90;69.50;;;;;;6227654;28;83944;-65
2023/12/29 00:17:40;;;;;;;9.52;8.63;;;23.90;69.50;;;;;;6232028;28;83235;-65
2023/12/29 00:20:42;;;;;;;9.70;8.73;;;23.90;69.50;;;;;;6232775;28;83979;-65
2023/12/29 00:23:44;;;;;;;10.10;9.10;;;23.90;69.40;;;;;;6233683;28;83455;-65
2023/12/29 00:26:47;;;;;;;10.05;9.05;;;23.80;69.60;;;;;;6232156;28;84195;-65
2023/12/29 00:29:49;;;;;;;10.23;9.23;;;23.80;69.70;;;;;;6234263;28;83524;-64
2023/12/29 00:32:52;;;;;;;10.00;9.00;;;23.90;70.60;;;;;;6236210;28;84952;-64
2023/12/29 00:35:54;;;;;;;10.40;9.40;;;23.80;69.60;;;;;;6235724;28;84345;-65
2023/12/29 00:38:56;;;;;;;10.35;9.25;;;23.90;69.70;;;;;;6225377;28;84082;-64
2023/12/29 00:41:58;;;;;;;9.73;8.82;;;23.80;69.60;;;;;;6235293;28;83968;-65
2023/12/29 00:45:00;;;;;;;10.70;9.60;;;23.80;69.60;;;;;;6225329;28;83039;-64
2023/12/29 00:48:04;;;;;;;10.30;9.30;;;23.80;69.60;;;;;;6236342;28;83027;-64
2023/12/29 00:51:06;;;;;;;10.85;9.52;;;23.90;69.60;;;;;;6236542;28;83173;-64
2023/12/29 00:54:08;;;;;;;9.90;8.90;;;23.90;69.60;;;;;;6236603;28;83266;-64
2023/12/29 00:57:10;;;;;;;10.60;9.60;;;23.90;69.60;;;;;;6237352;28;84015;-64
2023/12/29 01:00:13;;;;;;;10.15;9.15;;;23.90;69.70;;;;;;6236185;28;82872;-64
2023/12/29 01:03:16;;;;;;;10.63;9.52;;;23.80;69.70;;;;;;6235859;28;84908;-65
2023/12/29 01:06:18;;;;;;;10.98;9.88;;;23.80;69.70;;;;;;6236633;28;83952;-64
2023/12/29 01:09:20;;;;;;;10.52;9.52;;;23.80;69.80;;;;;;6233261;28;84236;-64
2023/12/29 01:12:22;;;;;;;10.30;9.30;;;23.70;69.80;;;;;;6233770;28;83983;-64
2023/12/29 01:15:24;;;;;;;10.43;9.43;;;23.70;69.80;;;;;;6233652;28;84256;-65
2023/12/29 01:18:28;;;;;;;10.48;9.43;;;23.70;69.60;;;;;;6232008;28;83078;-64
2023/12/29 01:21:33;;;;;;;10.38;9.38;;;23.70;69.60;;;;;;6235838;28;84003;-65
2023/12/29 01:24:35;;;;;;;10.05;9.15;;;23.70;69.60;;;;;;6235534;28;83309;-64
2023/12/29 01:27:37;;;;;;;10.82;9.73;;;23.70;69.70;;;;;;6227698;28;84068;-65
2023/12/29 01:30:39;;;;;;;10.23;9.23;;;23.70;69.80;;;;;;6235389;28;84106;-64
2023/12/29 01:33:42;;;;;;;10.43;9.38;;;23.60;69.60;;;;;;6234669;28;84927;-64
2023/12/29 01:36:44;;;;;;;10.25;9.25;;;23.60;69.70;;;;;;6235336;28;84133;-64
2023/12/29 01:39:46;;;;;;;11.45;10.25;;;23.60;69.80;;;;;;6234066;28;83943;-64
2023/12/29 01:42:48;;;;;;;10.32;9.32;;;23.60;69.70;;;;;;6234165;28;82945;-65
2023/12/29 01:45:50;;;;;;;11.05;9.98;;;23.60;69.80;;;;;;6235918;28;83062;-64
2023/12/29 01:48:53;;;;;;;10.40;9.40;;;23.60;69.90;;;;;;6234133;28;84643;-64
2023/12/29 01:51:59;;;;;;;10.40;9.40;;;23.60;69.90;;;;;;6234653;28;83955;-64
2023/12/29 01:55:01;;;;;;;10.05;9.05;;;23.60;70.00;;;;;;6236022;28;82096;-64
2023/12/29 01:58:03;;;;;;;10.60;9.50;;;23.60;70.00;;;;;;6234637;28;82907;-64
2023/12/29 02:01:07;;;;;;;10.60;9.50;;;23.60;70.00;;;;;;6234404;28;83996;-65
2023/12/29 02:04:12;;;;;;;10.18;9.18;;;23.60;70.00;;;;;;6234730;28;85328;-65
2023/12/29 02:07:14;;;;;;;10.68;9.60;;;23.60;70.00;;;;;;6227712;28;82817;-64
2023/12/29 02:10:17;;;;;;;10.43;9.32;;;23.60;70.00;;;;;;6233872;28;83073;-64
2023/12/29 02:13:21;;;;;;;10.40;9.30;;;23.60;69.90;;;;;;6232062;28;84040;-64
2023/12/29 02:16:34;;;;;;;10.38;9.38;;;23.60;69.80;;;;;;6234352;28;84011;-64
2023/12/29 02:19:42;;;;;;;9.70;8.70;;;23.60;69.80;;;;;;6229832;28;84099;-64
2023/12/29 02:22:44;;;;;;;11.35;9.57;;;23.60;69.80;;;;;;6235172;28;83344;-65
2023/12/29 02:25:47;;;;;;;9.43;8.52;;;23.60;69.80;;;;;;6235412;28;83318;-64
2023/12/29 02:28:57;;;;;;;9.73;8.73;;;23.60;69.80;;;;;;6232848;28;83854;-65
2023/12/29 02:32:01;;;;;;;9.85;8.85;;;23.50;69.80;;;;;;6231841;28;82899;-64
2023/12/29 02:35:07;;;;;;;9.73;8.73;;;23.50;69.80;;;;;;6234162;28;85129;-65
2023/12/29 02:38:09;;;;;;;9.60;8.70;;;23.40;69.70;;;;;;6234817;28;83958;-64
2023/12/29 02:41:14;;;;;;;10.25;9.15;;;23.40;69.60;;;;;;6233282;28;84005;-65
2023/12/29 02:44:16;;;;;;;11.30;9.77;;;23.50;69.80;;;;;;6234034;28;83798;-65
2023/12/29 02:47:19;;;;;;;9.38;8.48;;;23.40;69.80;;;;;;6234519;28;83966;-65
2023/12/29 02:50:21;;;;;;;9.13;8.23;;;23.40;69.70;;;;;;6234268;28;84116;-65
2023/12/29 02:53:23;;;;;;;9.90;8.90;;;23.40;69.60;;;;;;6232065;28;84021;-64
2023/12/29 02:56:26;;;;;;;9.68;8.68;;;23.40;69.70;;;;;;6233209;28;83275;-65
2023/12/29 02:59:28;;;;;;;9.60;8.70;;;23.40;69.70;;;;;;6234000;28;83925;-65
2023/12/29 03:02:30;;;;;;;10.18;9.15;;;23.40;69.70;;;;;;6233569;28;82902;-65
2023/12/29 03:05:32;;;;;;;9.77;8.82;;;23.40;69.80;;;;;;6227315;28;84991;-65
2023/12/29 03:08:34;;;;;;;9.68;8.77;;;23.40;69.80;;;;;;6234147;28;83975;-64
2023/12/29 03:11:37;;;;;;;10.77;9.57;;;23.30;69.70;;;;;;6232367;28;83999;-65
2023/12/29 03:14:39;;;;;;;11.50;9.63;;;23.30;69.70;;;;;;6232473;28;84026;-65
2023/12/29 03:17:41;;;;;;;9.60;8.70;;;23.30;69.80;;;;;;6233193;28;84098;-65
2023/12/29 03:20:43;;;;;;;10.55;9.45;;;23.30;69.80;;;;;;6232838;28;84057;-64
2023/12/29 03:23:45;;;;;;;10.40;9.30;;;23.30;69.90;;;;;;6231066;28;84013;-65
2023/12/29 03:26:48;;;;;;;10.43;9.40;;;23.30;69.90;;;;;;6233222;28;83321;-65
2023/12/29 03:29:51;;;;;;;10.50;9.50;;;23.30;69.90;;;;;;6233273;28;83961;-65
2023/12/29 03:32:53;;;;;;;10.10;9.10;;;23.30;69.90;;;;;;6232467;28;82984;-65
2023/12/29 03:35:55;;;;;;;10.52;9.43;;;23.30;69.80;;;;;;6232726;28;85108;-65
2023/12/29 03:38:57;;;;;;;11.15;10.05;;;23.30;69.80;;;;;;6233674;28;84203;-64
2023/12/29 03:42:00;;;;;;;10.90;9.82;;;23.30;69.80;;;;;;6232833;28;84467;-65
2023/12/29 03:45:02;;;;;;;10.30;9.30;;;23.30;69.80;;;;;;6232316;28;86338;-65
2023/12/29 03:48:04;;;;;;;10.50;9.50;;;23.30;69.80;;;;;;6233794;28;83945;-65
2023/12/29 03:51:07;;;;;;;11.00;9.90;;;23.30;69.80;;;;;;6232518;28;82933;-64
2023/12/29 03:54:09;;;;;;;10.88;9.77;;;23.30;69.80;;;;;;6232078;28;83959;-65
2023/12/29 03:57:12;;;;;;;11.20;10.05;;;23.30;69.80;;;;;;6232626;28;83217;-65
2023/12/29 04:00:15;;;;;;;10.55;9.50;;;23.30;69.80;;;;;;6230870;28;83989;-65
2023/12/29 04:03:17;;;;;;;10.88;9.77;;;23.30;69.80;;;;;;6232201;28;83055;-65
2023/12/29 04:06:19;;;;;;;11.30;10.20;;;23.20;69.80;;;;;;6232080;28;84948;-65
2023/12/29 04:09:21;;;;;;;10.77;9.70;;;23.20;69.90;;;;;;6219944;28;84039;-65
2023/12/29 04:12:24;;;;;;;11.20;10.10;;;23.20;69.90;;;;;;6231787;28;84000;-65
2023/12/29 04:15:26;;;;;;;11.75;10.55;;;23.20;69.90;;;;;;6231300;28;84150;-65
2023/12/29 04:18:29;;;;;;;11.80;10.60;;;23.10;69.90;;;;;;6231606;28;84001;-65
2023/12/29 04:21:31;;;;;;;10.95;9.95;;;23.10;69.90;;;;;;6229307;28;84053;-65
2023/12/29 04:24:33;;;;;;;11.30;10.20;;;23.10;70.00;;;;;;6233286;28;84046;-65
2023/12/29 04:27:36;;;;;;;11.25;10.15;;;23.10;70.00;;;;;;6231761;28;83414;-64
2023/12/29 04:30:38;;;;;;;11.80;10.60;;;23.10;70.00;;;;;;6231240;28;83065;-65
2023/12/29 04:33:40;;;;;;;11.60;10.40;;;23.10;70.00;;;;;;6231049;28;85234;-65
2023/12/29 04:36:42;;;;;;;11.20;10.10;;;23.10;70.00;;;;;;6226404;28;85385;-64
2023/12/29 04:39:44;;;;;;;10.77;9.68;;;23.10;70.00;;;;;;6227282;28;83984;-64
2023/12/29 04:42:47;;;;;;;11.10;10.00;;;23.10;70.10;;;;;;6232814;28;84051;-65
2023/12/29 04:45:49;;;;;;;11.98;10.77;;;23.10;70.10;;;;;;6228232;28;83967;-65
2023/12/29 04:48:51;;;;;;;11.73;10.52;;;23.10;70.00;;;;;;6231652;28;84378;-65
2023/12/29 04:51:53;;;;;;;11.45;10.35;;;23.10;69.90;;;;;;6230536;28;84156;-65
2023/12/29 04:54:55;;;;;;;11.20;10.10;;;23.10;69.80;;;;;;6229940;28;83044;-65
2023/12/29 04:57:59;;;;;;;11.63;10.52;;;23.10;69.70;;;;;;6230055;28;83333;-64
2023/12/29 05:01:00;;;;;;;11.00;9.90;;;23.20;69.80;;;;;;6227576;28;83930;-64
2023/12/29 05:04:03;;;;;;;11.38;10.23;;;23.10;69.70;;;;;;6229817;28;83946;-64
2023/12/29 05:07:09;;;;;;;11.65;10.32;;;23.20;69.80;;;;;;6229508;28;84836;-64
2023/12/29 05:10:11;;;;;;;10.95;9.85;;;23.20;69.70;;;;;;6231873;28;83926;-64
2023/12/29 05:13:14;;;;;;;10.90;9.80;;;23.30;69.70;;;;;;6231070;28;82883;-64
2023/12/29 05:16:16;;;;;;;10.82;9.73;;;23.30;69.60;;;;;;6234551;28;84117;-65
2023/12/29 05:19:18;;;;;;;10.43;9.43;;;23.30;69.50;;;;;;6233768;28;84189;-64
2023/12/29 05:22:21;;;;;;;10.23;9.30;;;23.30;69.40;;;;;;6235794;28;83994;-65
2023/12/29 05:25:24;;;;;;;10.63;9.52;;;23.30;69.40;;;;;;6236390;28;85042;-64
2023/12/29 05:28:27;;;;;;;10.50;9.50;;;23.30;69.40;;;;;;6236125;28;83278;-65
2023/12/29 05:31:29;;;;;;;10.35;9.35;;;23.40;69.40;;;;;;6234541;28;83958;-65
2023/12/29 05:34:31;;;;;;;10.00;9.00;;;23.40;70.30;;;;;;6235491;28;82920;-64
2023/12/29 05:37:33;;;;;;;10.30;9.23;;;23.40;69.30;;;;;;6235683;28;84919;-65
2023/12/29 05:40:35;;;;;;;10.48;9.23;;;23.40;70.20;;;;;;6236444;28;82976;-65
2023/12/29 05:43:39;;;;;;;10.18;9.18;;;23.40;69.30;;;;;;6235296;28;83169;-65
2023/12/29 05:46:41;;;;;;;10.10;9.10;;;23.50;69.30;;;;;;6222238;28;84147;-65
2023/12/29 05:49:43;;;;;;;9.52;8.63;;;23.50;69.20;;;;;;6234311;28;83988;-65
2023/12/29 05:52:49;;;;;;;10.13;9.02;;;23.50;69.20;;;;;;6234492;28;83742;-65
2023/12/29 05:55:51;;;;;;;9.55;8.65;;;23.50;69.20;;;;;;6233338;28;84008;-65
2023/12/29 05:58:55;;;;;;;9.90;8.90;;;23.50;69.20;;;;;;6232997;28;83317;-64
2023/12/29 06:01:57;;;;;;;10.00;9.00;;;23.50;69.20;;;;;;6235182;28;84009;-65
2023/12/29 06:04:59;;;;;;;10.93;9.40;;;23.50;69.30;;;;;;6234190;28;84063;-65
2023/12/29 06:08:01;;;;;;;9.32;8.43;;;23.50;69.30;;;;;;6235697;28;85118;-64
2023/12/29 06:11:03;;;;;;;9.48;8.57;;;23.50;69.30;;;;;;6234985;28;84257;-64
2023/12/29 06:14:07;;;;;;;9.35;8.45;;;23.50;69.30;;;;;;6234869;28;84213;-65
2023/12/29 06:17:09;;;;;;;9.50;8.57;;;23.50;69.30;;;;;;6234898;28;84575;-65
2023/12/29 06:20:12;;;;;;;8.90;8.10;;;23.50;69.30;;;;;;6227828;28;83993;-65
2023/12/29 06:23:14;;;;;;;9.30;8.40;;;23.50;69.20;;;;;;6227861;28;82902;-65
2023/12/29 06:26:17;;;;;;;9.07;8.18;;;23.50;69.30;;;;;;6231534;28;83961;-64
2023/12/29 06:29:21;;;;;;;9.00;8.10;;;23.60;69.30;;;;;;6235104;28;83462;-65
2023/12/29 06:32:23;;;;;;;9.15;8.23;;;23.60;69.30;;;;;;6224013;28;84086;-64
2023/12/29 06:35:25;;;;;;;8.43;7.63;;;23.60;69.20;;;;;;6233933;28;84098;-65
2023/12/29 06:38:27;;;;;;;9.07;8.18;;;23.60;69.20;;;;;;6233874;28;84740;-65
2023/12/29 06:41:29;;;;;;;8.23;7.43;;;23.60;69.10;;;;;;6234872;28;84096;-65
2023/12/29 06:44:32;;;;;;;8.18;7.38;;;23.60;69.10;;;;;;6234760;28;84084;-65
2023/12/29 06:47:34;;;;;;;8.55;7.75;;;23.60;69.10;;;;;;6234530;28;84064;-65
2023/12/29 06:50:37;;;;;;;8.70;7.80;;;23.70;69.20;;;;;;6234671;28;83020;-65
2023/12/29 06:53:39;;;;;;;8.90;7.95;;;23.60;69.10;;;;;;6234475;28;84015;-65
2023/12/29 06:56:41;;;;;;;8.05;7.32;;;23.60;69.10;;;;;;6224042;28;84792;-65
2023/12/29 06:59:45;;;;;;;8.68;7.88;;;23.70;69.20;;;;;;6231933;28;83646;-65
2023/12/29 07:02:47;;;;;;;8.23;7.32;;;23.70;69.20;;;;;;6233515;28;84470;-65
2023/12/29 07:05:49;;;;;;;7.95;7.15;;;23.70;69.30;;;;;;6233616;28;82955;-65
2023/12/29 07:08:51;;;;;;;8.05;7.25;;;23.70;69.20;;;;;;6233104;28;85259;-65
2023/12/29 07:11:53;;;;;;;7.72;7.03;;;23.70;69.20;;;;;;6232459;28;84125;-64
2023/12/29 07:14:56;;;;;;;8.73;7.65;;;23.70;69.20;;;;;;6231900;28;82921;-65
2023/12/29 07:17:58;;;;;;;7.55;6.80;;;23.70;69.20;;;;;;6234252;28;82983;-65
2023/12/29 07:21:00;;;;;;;7.07;6.38;;;23.70;69.20;;;;;;6221456;28;83969;-65
2023/12/29 07:24:02;;;;;;;7.90;7.10;;;23.70;69.20;;;;;;6233732;28;84273;-65
2023/12/29 07:27:05;;;;;;;7.32;6.63;;;23.70;69.20;;;;;;6232803;28;83122;-65
2023/12/29 07:30:10;;;;;;;7.38;6.68;;;23.70;69.20;;;;;;6233979;28;82202;-65
2023/12/29 07:33:12;;;;;;;6.97;6.35;;;23.70;69.20;;;;;;6233783;28;83920;-64
2023/12/29 07:36:14;;;;;;;6.82;6.15;;;23.70;69.20;;;;;;6233953;28;83963;-65
2023/12/29 07:39:16;;;;;;;7.32;6.63;;;23.70;69.20;;;;;;6230153;28;84985;-64
2023/12/29 07:42:18;;;;;;;7.45;6.57;;;23.70;69.10;;;;;;6232313;28;83894;-65
2023/12/29 07:45:21;;;;;;;6.55;5.95;;;23.70;69.10;;;;;;6233323;28;85134;-65
2023/12/29 07:48:23;;;;;;;7.15;6.45;;;23.70;69.10;;;;;;6232950;28;85864;-65
2023/12/29 07:51:26;;;;;;;6.75;6.15;;;23.80;69.20;;;;;;6233016;28;84137;-65
2023/12/29 07:54:28;;;;;;;6.53;5.93;;;23.80;69.20;;;;;;6232524;28;84024;-65
2023/12/29 07:57:30;;;;;;;7.25;6.30;;;23.80;69.10;;;;;;6233178;28;84279;-65
2023/12/29 08:00:34;;;;;;;6.70;6.00;;;23.80;68.90;;;;;;6233005;28;83568;-65
2023/12/29 08:03:36;;;;;;;6.43;5.82;;;23.80;69.80;;;;;;6233140;28;83958;-65
2023/12/29 08:06:38;;;;;;;6.10;5.60;;;23.80;68.90;;;;;;6231288;28;84516;-65
2023/12/29 08:09:40;;;;;;;6.47;5.88;;;23.80;68.90;;;;;;6229911;28;85233;-65
2023/12/29 08:12:42;;;;;;;5.80;5.30;;;23.80;69.00;;;;;;6232632;28;84029;-64
2023/12/29 08:15:45;;;;;;;6.45;5.85;;;23.80;69.00;;;;;;6233166;28;83938;-65
2023/12/29 08:18:47;;;;;;;6.22;5.63;;;23.80;69.10;;;;;;6231449;28;84219;-65
2023/12/29 08:21:49;;;;;;;6.18;5.57;;;23.80;69.10;;;;;;6232431;28;84497;-65
2023/12/29 08:24:51;;;;;;;6.10;5.50;;;23.80;69.10;;;;;;6232460;28;84444;-64
2023/12/29 08:27:53;;;;;;;6.05;5.50;;;23.80;70.10;;;;;;6225292;28;84036;-65
2023/12/29 08:30:57;;;;;;;6.70;6.00;;;23.80;69.20;;;;;;6233362;28;83465;-65
2023/12/29 08:33:59;;;;;;;5.50;5.00;;;23.80;69.10;;;;;;6233688;28;84018;-65
2023/12/29 08:37:01;;;;;;;6.05;5.45;;;23.80;69.10;;;;;;6231541;28;84425;-65
2023/12/29 08:40:03;;;;;;;5.65;5.15;;;23.80;69.10;;;;;;6228752;28;85017;-65
2023/12/29 08:43:05;;;;;;;5.85;5.25;;;23.80;69.10;;;;;;6232743;28;84123;-65
2023/12/29 08:46:08;;;;;;;5.40;4.90;;;23.80;69.20;;;;;;6232396;28;83834;-65
2023/12/29 08:49:10;;;;;;;5.90;5.30;;;23.80;69.20;;;;;;6230741;28;82895;-65
2023/12/29 08:52:12;;;;;;;5.78;5.28;;;23.80;69.20;;;;;;6235396;28;83961;-65
2023/12/29 08:55:14;;;;;;;5.45;4.95;;;23.80;69.20;;;;;;6233107;28;84042;-65
2023/12/29 08:58:16;;;;;;;5.07;4.57;;;23.80;69.20;;;;;;6236449;28;84093;-65
2023/12/29 09:01:20;;;;;;;5.60;5.10;;;23.80;69.30;;;;;;6237143;28;82236;-65
2023/12/29 09:04:22;;;;;;;5.20;4.70;;;23.90;69.30;;;;;;6235432;28;83957;-65
2023/12/29 09:07:24;;;;;;;5.90;5.28;;;23.80;69.20;;;;;;6236342;28;84125;-65
2023/12/29 09:10:26;;;;;;;5.47;4.82;;;23.90;69.30;;;;;;6233801;28;84832;-65
2023/12/29 09:13:28;;;;;;;6.20;5.20;;;23.90;69.30;;;;;;6235920;28;82921;-65
2023/12/29 09:16:31;;;;;;;5.15;4.65;;;23.90;69.30;;;;;;6235453;28;84155;-65
2023/12/29 09:19:34;;;;;;;6.47;5.43;;;23.80;69.30;;;;;;6229304;28;84093;-65
2023/12/29 09:22:36;;;;;;;5.55;4.97;;;23.90;69.30;;;;;;6236260;28;83001;-65
2023/12/29 09:25:38;;;;;;;5.00;4.60;;;23.90;69.30;;;;;;6236108;28;83014;-65
2023/12/29 09:28:43;;;;;;;5.18;4.68;;;23.90;69.30;;;;;;6231580;28;82857;-65
2023/12/29 09:31:47;;;;;;;5.22;4.72;;;23.90;69.30;;;;;;6233964;28;83047;-65
2023/12/29 09:34:49;;;;;;;5.47;4.97;;;23.90;69.30;;;;;;6235942;28;84022;-65
2023/12/29 09:37:51;;;;;;;5.13;4.63;;;23.90;69.30;;;;;;6230260;28;83963;-65
2023/12/29 09:40:54;;;;;;;5.25;4.75;;;23.90;69.30;;;;;;6229875;28;84585;-65
2023/12/29 09:43:57;;;;;;;5.00;4.50;;;23.90;69.30;;;;;;6235726;28;85826;-65
2023/12/29 09:47:03;;;;;;;4.65;4.25;;;23.90;69.30;;;;;;6236041;28;83996;-65
2023/12/29 09:50:06;;;;;;;5.20;4.70;;;23.90;69.30;;;;;;6233521;28;84036;-65
2023/12/29 09:53:12;;;;;;;4.57;4.18;;;23.90;69.30;;;;;;6235562;28;84205;-66
2023/12/29 09:56:15;;;;;;;5.22;4.72;;;23.90;69.40;;;;;;6234546;28;84070;-65
2023/12/29 09:59:18;;;;;;;4.72;4.25;;;23.90;69.30;;;;;;6234779;28;84444;-64
2023/12/29 10:02:22;;;;;;;4.40;4.00;;;23.90;69.40;;;;;;6235749;28;83129;-65
2023/12/29 10:05:24;;;;;;;4.70;4.20;;;23.90;69.50;;;;;;6234844;28;82538;-65
2023/12/29 10:08:28;;;;;;;5.13;4.63;;;23.90;69.60;;;;;;6236066;28;82909;-65
2023/12/29 10:11:31;;;;;;;5.05;4.55;;;23.90;69.70;;;;;;6223354;28;85009;-65
2023/12/29 10:14:47;;;;;;;5.93;4.45;;;23.90;69.70;;;;;;6235143;28;82876;-65
2023/12/29 10:18:02;;;;;;;4.88;4.38;;;23.90;69.80;;;;;;6233290;28;83978;-65
2023/12/29 10:21:13;;;;;;;5.28;4.43;;;23.90;69.90;;;;;;6233072;28;84160;-65
2023/12/29 10:24:20;;;;;;;4.82;4.32;;;23.90;69.80;;;;;;6224460;28;84139;-65
2023/12/29 10:27:22;;;;;;;4.88;4.38;;;23.90;69.90;;;;;;6235327;28;82829;-64
2023/12/29 10:30:24;;;;;;;4.57;4.18;;;23.90;69.90;;;;;;6235820;28;83024;-65
2023/12/29 10:33:30;;;;;;;4.95;4.30;;;23.90;70.00;;;;;;6234736;28;83339;-65
2023/12/29 10:36:47;;;;;;;4.95;4.45;;;23.90;69.90;;;;;;6228877;28;84454;-65
2023/12/29 10:39:57;;;;;;;4.57;4.18;;;24.00;70.80;;;;;;6232534;28;84069;-65
2023/12/29 10:43:04;;;;;;;4.43;4.03;;;24.00;70.00;;;;;;6234285;28;84987;-65
2023/12/29 10:46:10;;;;;;;4.55;4.15;;;24.00;69.90;;;;;;6233414;28;84112;-65
2023/12/29 10:49:14;;;;;;;5.78;4.38;;;24.00;69.90;;;;;;6233422;28;84036;-65
2023/12/29 10:52:17;;;;;;;5.85;4.60;;;24.00;69.90;;;;;;6232985;28;84224;-65
2023/12/29 10:55:19;;;;;;;4.55;4.13;;;24.00;70.00;;;;;;6234295;28;84008;-65
2023/12/29 10:58:21;;;;;;;4.43;4.03;;;24.00;70.00;;;;;;6234753;28;82939;-65
2023/12/29 11:01:23;;;;;;;4.60;4.20;;;24.10;70.00;;;;;;6234014;28;82924;-65
2023/12/29 11:04:27;;;;;;;4.95;4.47;;;24.00;70.00;;;;;;6233373;28;83897;-64
2023/12/29 11:07:33;;;;;;;5.45;4.90;;;24.00;70.00;;;;;;6232277;28;84333;-64
2023/12/29 11:10:35;;;;;;;5.30;4.68;;;24.00;70.00;;;;;;6230724;28;84092;-64
2023/12/29 11:13:37;;;;;;;6.15;4.63;;;24.00;70.10;;;;;;6231206;28;85092;-64
2023/12/29 11:16:42;;;;;;;5.45;4.95;;;24.00;70.10;;;;;;6232641;28;84300;-65
2023/12/29 11:19:48;;;;;;;5.90;5.30;;;24.00;70.10;;;;;;6227296;28;83926;-65
2023/12/29 11:22:50;;;;;;;5.30;4.80;;;24.00;70.10;;;;;;6230486;28;84168;-65
2023/12/29 11:25:52;;;;;;;5.95;5.35;;;24.00;70.20;;;;;;6231142;28;84015;-65
2023/12/29 11:28:55;;;;;;;5.45;4.95;;;24.10;70.30;;;;;;6231068;28;82947;-65
2023/12/29 11:31:59;;;;;;;5.38;4.88;;;24.00;70.20;;;;;;6230732;28;84120;-65
2023/12/29 11:35:13;;;;;;;6.15;5.10;;;24.00;70.40;;;;;;6231102;28;82091;-64
2023/12/29 11:38:34;;;;;;;5.97;5.38;;;24.00;70.40;;;;;;6231466;28;83740;-64
2023/12/29 11:41:42;;;;;;;5.80;5.20;;;24.00;70.40;;;;;;6228307;28;83928;-65
2023/12/29 11:44:45;;;;;;;5.75;5.15;;;24.00;70.30;;;;;;6229732;28;85310;-65
2023/12/29 11:47:53;;;;;;;6.10;5.50;;;24.00;70.40;;;;;;6230530;28;83953;-65
2023/12/29 11:50:56;;;;;;;6.45;5.65;;;24.00;70.40;;;;;;6230739;28;83902;-65
2023/12/29 11:53:59;;;;;;;7.00;5.55;;;24.10;70.60;;;;;;6230043;28;82893;-64
2023/12/29 11:57:00;;;;;;;5.82;5.30;;;24.00;70.50;;;;;;6229027;28;84341;-65
2023/12/29 12:00:05;;;;;;;6.85;5.72;;;24.10;70.50;;;;;;6227935;28;83610;-64
2023/12/29 12:03:15;;;;;;;6.10;5.50;;;24.10;70.50;;;;;;6223712;28;84034;-65
2023/12/29 12:06:38;;;;;;;6.95;5.95;;;24.10;70.50;;;;;;6226857;28;83267;-65
2023/12/29 12:09:40;;;;;;;6.53;5.85;;;24.10;70.50;;;;;;6226660;28;83940;-65
2023/12/29 12:12:43;;;;;;;6.22;5.63;;;24.10;70.50;;;;;;6223848;28;84328;-65
2023/12/29 12:15:45;;;;;;;6.70;6.03;;;24.10;70.50;;;;;;6217076;28;84959;-65
2023/12/29 12:18:47;;;;;;;6.65;5.70;;;24.10;70.50;;;;;;6228024;28;82822;-65
2023/12/29 12:21:54;;;;;;;6.28;5.68;;;24.10;70.50;;;;;;6230896;28;84374;-65
2023/12/29 12:24:58;;;;;;;6.72;5.93;;;24.10;70.50;;;;;;6230805;28;84024;-64
2023/12/29 12:28:00;;;;;;;7.00;6.30;;;24.10;70.50;;;;;;6235218;28;83069;-64
2023/12/29 12:31:08;;;;;;;7.78;6.20;;;24.10;70.60;;;;;;6232883;28;82909;-64
2023/12/29 12:34:10;;;;;;;6.55;5.85;;;24.10;71.50;;;;;;6228809;28;83364;-65
2023/12/29 12:37:19;;;;;;;6.25;5.57;;;24.10;70.60;;;;;;6233784;28;83383;-64
2023/12/29 12:40:27;;;;;;;6.65;6.05;;;24.10;70.60;;;;;;6232819;28;82877;-65
2023/12/29 12:43:31;;;;;;;6.95;6.28;;;24.10;70.70;;;;;;6232357;28;84397;-64
2023/12/29 12:46:36;;;;;;;7.05;5.90;;;24.10;71.60;;;;;;6233253;28;85051;-65
2023/12/29 12:49:38;;;;;;;6.80;6.15;;;24.10;70.80;;;;;;6233510;28;83889;-65
2023/12/29 12:52:42;;;;;;;6.78;6.07;;;24.10;70.80;;;;;;6229171;28;82866;-64
2023/12/29 12:55:44;;;;;;;6.90;6.20;;;24.10;70.80;;;;;;6227945;28;83978;-65
2023/12/29 12:58:46;;;;;;;7.97;6.72;;;24.10;70.80;;;;;;6233145;28;82976;-65
2023/12/29 13:01:49;;;;;;;6.65;6.05;;;24.10;70.90;;;;;;6234447;28;84162;-65
2023/12/29 13:04:53;;;;;;;6.80;6.00;;;24.10;70.90;;;;;;6234559;28;84108;-65
2023/12/29 13:07:56;;;;;;;6.15;5.40;;;24.10;70.90;;;;;;6224068;28;83454;-65
2023/12/29 13:11:00;;;;;;;6.22;5.63;;;24.10;70.90;;;;;;6231606;28;83989;-65
2023/12/29 13:14:02;;;;;;;6.80;6.13;;;24.10;71.00;;;;;;6230722;28;82936;-65
2023/12/29 13:17:10;;;;;;;6.47;5.88;;;24.10;71.00;;;;;;6231690;28;85020;-65
2023/12/29 13:20:12;;;;;;;7.32;6.05;;;24.10;71.00;;;;;;6232181;28;82775;-65
2023/12/29 13:23:15;;;;;;;6.97;6.10;;;24.10;71.00;;;;;;6233327;28;84088;-65
2023/12/29 13:26:20;;;;;;;7.05;6.05;;;24.10;71.00;;;;;;6232632;28;83978;-64
2023/12/29 13:29:24;;;;;;;10.80;6.63;;;24.10;71.00;;;;;;6232381;28;84042;-64
2023/12/29 13:32:28;;;;;;;7.10;6.32;;;24.10;71.00;;;;;;6233827;28;84164;-65
2023/12/29 13:35:38;;;;;;;6.43;5.72;;;24.10;71.00;;;;;;6231908;28;82916;-65
2023/12/29 13:38:47;;;;;;;7.07;6.07;;;24.10;70.90;;;;;;6234564;28;83553;-65
2023/12/29 13:41:49;;;;;;;7.57;6.25;;;24.10;70.90;;;;;;6231338;28;84635;-65
2023/12/29 13:44:53;;;;;;;6.65;5.95;;;24.10;70.80;;;;;;6221758;28;82916;-65
2023/12/29 13:47:57;;;;;;;6.90;6.15;;;24.10;70.90;;;;;;6231641;28;85410;-64
2023/12/29 13:50:59;;;;;;;6.60;6.00;;;24.10;70.90;;;;;;6231435;28;82885;-64
2023/12/29 13:54:04;;;;;;;6.53;5.93;;;24.10;70.90;;;;;;6231964;28;84008;-65
2023/12/29 13:57:06;;;;;;;8.02;7.03;;;24.10;70.80;;;;;;6232182;28;83644;-64
2023/12/29 14:00:20;;;;;;;7.88;6.70;;;24.10;70.90;;;;;;6232976;28;84349;-65
2023/12/29 14:03:24;;;;;;;7.78;6.97;;;24.20;70.90;;;;;;6222156;28;83950;-64
2023/12/29 14:06:30;;;;;;;7.07;6.45;;;24.10;70.80;;;;;;6221873;28;84091;-65
2023/12/29 14:09:35;;;;;;;7.75;6.95;;;24.10;70.80;;;;;;6232347;28;82215;-65
2023/12/29 14:12:37;;;;;;;8.43;6.80;;;24.10;70.80;;;;;;6232158;28;82203;-65
2023/12/29 14:15:40;;;;;;;7.38;6.70;;;24.10;70.80;;;;;;6231697;28;84143;-65
2023/12/29 14:18:54;;;;;;;8.07;7.28;;;24.20;70.90;;;;;;6222512;28;84901;-64
2023/12/29 14:21:56;;;;;;;7.70;6.90;;;24.10;70.80;;;;;;6232140;28;83975;-65
2023/12/29 14:25:05;;;;;;;8.10;7.28;;;24.10;70.80;;;;;;6222125;28;84012;-65
2023/12/29 14:28:16;;;;;;;8.30;7.47;;;24.20;70.80;;;;;;6229882;28;84029;-65
2023/12/29 14:31:18;;;;;;;9.35;8.07;;;24.10;70.90;;;;;;6229025;28;84040;-64
2023/12/29 14:34:20;;;;;;;8.55;7.65;;;24.10;70.80;;;;;;6230629;28;82930;-65
2023/12/29 14:37:22;;;;;;;9.68;7.95;;;24.10;70.80;;;;;;6222412;28;84206;-65
2023/12/29 14:40:26;;;;;;;9.05;8.15;;;24.10;70.80;;;;;;6233041;28;83289;-65
2023/12/29 14:43:28;;;;;;;8.10;7.40;;;24.10;70.80;;;;;;6229695;28;83947;-65
2023/12/29 14:46:30;;;;;;;8.25;7.45;;;24.10;70.80;;;;;;6223340;28;84134;-65
2023/12/29 14:49:32;;;;;;;9.25;7.80;;;24.10;70.80;;;;;;6229889;28;85010;-65
2023/12/29 14:52:34;;;;;;;11.13;7.65;;;24.10;71.20;;;;;;6233736;28;82934;-65
2023/12/29 14:55:38;;;;;;;9.32;8.32;;;24.10;71.50;;;;;;6234345;28;84176;-65
2023/12/29 14:58:41;;;;;;;11.75;8.10;;;24.10;71.70;;;;;;6234872;28;82940;-64
2023/12/29 15:01:43;;;;;;;10.20;8.43;;;24.10;71.80;;;;;;6233820;28;84229;-65
2023/12/29 15:04:45;;;;;;;11.60;8.30;;;24.10;71.80;;;;;;6234149;28;84029;-65
2023/12/29 15:07:47;;;;;;;9.60;8.60;;;24.10;71.70;;;;;;6231759;28;84125;-65
2023/12/29 15:10:51;;;;;;;9.35;8.00;;;24.20;71.80;;;;;;6234682;28;83173;-65
2023/12/29 15:13:53;;;;;;;12.35;9.07;;;24.10;71.80;;;;;;6232103;28;84102;-65
2023/12/29 15:16:55;;;;;;;12.05;8.70;;;24.10;71.70;;;;;;6233280;28;83936;-65
2023/12/29 15:19:57;;;;;;;9.80;8.80;;;24.10;71.70;;;;;;6224619;28;85335;-65
2023/12/29 15:23:00;;;;;;;11.07;8.68;;;24.10;71.70;;;;;;6233484;28;84244;-65
2023/12/29 15:26:04;;;;;;;10.85;9.48;;;24.10;71.70;;;;;;6233654;28;83896;-65
2023/12/29 15:29:06;;;;;;;10.20;9.10;;;24.10;71.60;;;;;;6233362;28;84174;-65
2023/12/29 15:32:08;;;;;;;11.98;9.00;;;24.10;71.60;;;;;;6221997;28;84261;-65
2023/12/29 15:35:10;;;;;;;9.77;8.73;;;24.20;71.70;;;;;;6233172;28;84045;-65
2023/12/29 15:38:13;;;;;;;9.90;8.90;;;24.10;71.70;;;;;;6233427;28;83998;-65
2023/12/29 15:41:16;;;;;;;10.45;8.82;;;24.10;71.60;;;;;;6233996;28;83324;-65
2023/12/29 15:44:18;;;;;;;11.23;9.10;;;24.10;71.60;;;;;;6233086;28;83004;-65
2023/12/29 15:47:20;;;;;;;11.10;9.13;;;24.10;71.60;;;;;;6232603;28;83988;-65
2023/12/29 15:50:22;;;;;;;10.60;9.27;;;24.10;71.60;;;;;;6233154;28;84925;-65